Time;durP1;ratioP1;P1;durP2;ratioP2;P2;SDS_P1;SDS_P2;PMS_P1;PMS_P2;Temp;Humidity;BMP_temperature;BMP_pressure;BME280_temperature;BME280_humidity;BME280_pressure;Samples;Min_cycle;Max_cycle;Signal;HPM_P1;HPM_P2
2021/11/08 00:00:16;;;;;;;29.13;23.33;;;256.80;2252.80;;;;;;5029704;28;20050;-59
2021/11/08 00:02:44;;;;;;;23.52;17.55;;;256.60;2252.80;;;;;;5029194;28;20387;-57
2021/11/08 00:05:10;;;;;;;16.73;13.23;;;256.50;2252.80;;;;;;5017608;28;20029;-58
2021/11/08 00:07:36;;;;;;;31.15;19.25;;;256.40;2252.80;;;;;;5015433;28;20022;-57
2021/11/08 00:10:06;;;;;;;18.23;12.98;;;256.30;2252.80;;;;;;5018356;28;20033;-58
2021/11/08 00:12:35;;;;;;;11.80;9.27;;;256.20;2252.80;;;;;;5021398;28;20022;-59
2021/11/08 00:15:02;;;;;;;13.27;10.25;;;256.20;2252.80;;;;;;5026613;28;20475;-59
2021/11/08 00:18:08;;;;;;;17.35;12.73;;;256.20;2252.80;;;;;;5029390;28;20021;-60
2021/11/08 00:20:27;;;;;;;11.93;9.57;;;256.20;2252.80;;;;;;5019436;28;20033;-58
2021/11/08 00:22:53;;;;;;;15.00;9.63;;;256.20;2252.80;;;;;;5018414;28;20480;-59
2021/11/08 00:25:19;;;;;;;30.88;19.48;;;256.20;2252.80;;;;;;5019628;28;20025;-58
2021/11/08 00:27:45;;;;;;;28.48;16.05;;;256.20;2252.80;;;;;;5019927;28;20037;-59
2021/11/08 00:30:12;;;;;;;16.15;11.95;;;256.20;2252.80;;;;;;5028980;28;20383;-60
2021/11/08 00:32:39;;;;;;;15.75;11.85;;;256.20;2252.80;;;;;;5029246;28;20033;-59
2021/11/08 00:35:06;;;;;;;16.67;12.30;;;256.10;2252.80;;;;;;5028952;28;20036;-59
2021/11/08 00:37:33;;;;;;;15.68;10.48;;;256.00;2252.80;;;;;;5029010;28;20028;-59
2021/11/08 00:39:58;;;;;;;15.15;9.93;;;256.20;2252.80;;;;;;5020739;28;20037;-59
2021/11/08 00:42:28;;;;;;;15.63;11.02;;;256.10;2252.80;;;;;;5021897;28;20117;-60
2021/11/08 00:44:56;;;;;;;12.90;9.85;;;256.00;2252.80;;;;;;5025899;28;20108;-59
2021/11/08 00:47:22;;;;;;;13.38;9.88;;;256.30;2252.80;;;;;;5022055;28;20033;-60
2021/11/08 00:49:49;;;;;;;15.95;10.85;;;256.20;2252.80;;;;;;5025271;28;20120;-60
2021/11/08 00:52:15;;;;;;;18.70;14.38;;;256.10;2252.80;;;;;;5032841;28;20074;-59
2021/11/08 00:54:41;;;;;;;15.05;11.07;;;256.00;2252.80;;;;;;5033142;28;20025;-59
2021/11/08 00:57:11;;;;;;;15.18;10.70;;;256.10;2252.80;;;;;;5032819;28;20029;-59
2021/11/08 00:59:37;;;;;;;14.32;9.93;;;256.00;2252.80;;;;;;5032172;28;20061;-60
2021/11/08 01:02:03;;;;;;;16.67;12.13;;;256.00;2252.80;;;;;;5032660;28;20022;-59
2021/11/08 01:04:29;;;;;;;17.25;10.77;;;256.00;2252.80;;;;;;5032984;28;20037;-58
2021/11/08 01:07:00;;;;;;;16.48;11.23;;;256.00;2252.80;;;;;;5032675;28;20380;-60
2021/11/08 01:09:28;;;;;;;18.05;11.68;;;256.10;2252.80;;;;;;5032506;28;20037;-60
2021/11/08 01:11:54;;;;;;;19.77;11.95;;;256.10;2252.80;;;;;;5032427;28;20026;-59
2021/11/08 01:14:20;;;;;;;16.98;11.40;;;256.10;2252.80;;;;;;5032738;28;20021;-59
2021/11/08 01:16:48;;;;;;;23.35;16.50;;;256.30;2252.80;;;;;;5032203;28;20025;-59
2021/11/08 01:19:14;;;;;;;21.77;15.32;;;256.20;2252.80;;;;;;5032659;28;20171;-60
2021/11/08 01:21:41;;;;;;;24.02;17.48;;;231.30;2252.80;;;;;;5034450;28;20041;-64
2021/11/08 01:24:07;;;;;;;22.42;16.02;;;256.00;2252.80;;;;;;5036133;28;20029;-59
2021/11/08 01:26:33;;;;;;;31.05;19.10;;;231.30;2252.80;;;;;;5035838;28;20032;-58
2021/11/08 01:28:59;;;;;;;32.28;17.20;;;256.10;2252.80;;;;;;5063752;28;20050;-58
2021/11/08 01:31:25;;;;;;;29.80;19.88;;;256.10;2252.80;;;;;;5031923;28;20036;-59
2021/11/08 01:33:53;;;;;;;28.88;17.98;;;256.00;2252.80;;;;;;5032320;28;20041;-60
2021/11/08 01:36:25;;;;;;;30.88;17.70;;;231.30;2252.80;;;;;;5032366;28;20418;-59
2021/11/08 01:38:54;;;;;;;21.15;15.02;;;231.30;2252.80;;;;;;5032421;28;20383;-59
2021/11/08 01:41:23;;;;;;;28.60;16.45;;;256.00;2252.80;;;;;;5032360;28;20022;-58
2021/11/08 01:43:49;;;;;;;28.35;16.50;;;231.30;2252.80;;;;;;5032112;28;20379;-59
2021/11/08 01:46:17;;;;;;;19.95;14.23;;;256.10;2252.80;;;;;;5031748;28;20028;-59
2021/11/08 01:48:43;;;;;;;24.02;15.13;;;256.20;2252.80;;;;;;5031709;28;20091;-59
2021/11/08 01:51:09;;;;;;;26.15;17.08;;;256.20;2252.80;;;;;;5031475;28;20025;-58
2021/11/08 01:53:36;;;;;;;23.10;15.50;;;256.10;2252.80;;;;;;5031401;28;20105;-58
2021/11/08 01:56:03;;;;;;;24.63;15.15;;;231.30;2252.80;;;;;;5032003;28;20018;-58
2021/11/08 01:58:31;;;;;;;31.15;17.65;;;256.00;2252.80;;;;;;5031738;28;20037;-58
2021/11/08 02:00:58;;;;;;;28.70;17.08;;;231.30;2252.80;;;;;;5031207;28;20053;-58
2021/11/08 02:03:24;;;;;;;27.40;17.55;;;231.10;2252.80;;;;;;5031517;28;20034;-58
2021/11/08 02:05:50;;;;;;;32.58;16.83;;;231.20;2252.80;;;;;;5031773;28;20026;-58
2021/11/08 02:08:17;;;;;;;26.55;16.35;;;231.30;2252.80;;;;;;5031407;28;20034;-58
2021/11/08 02:10:44;;;;;;;25.30;15.63;;;231.30;2252.80;;;;;;5031881;28;20033;-59
2021/11/08 02:13:10;;;;;;;23.73;14.88;;;256.00;2252.80;;;;;;5031430;28;20026;-58
2021/11/08 02:15:37;;;;;;;24.35;15.45;;;231.10;2252.80;;;;;;5031163;28;20505;-58
2021/11/08 02:18:08;;;;;;;25.90;17.08;;;231.10;2252.80;;;;;;5031652;28;20087;-58
2021/11/08 02:20:35;;;;;;;25.35;17.63;;;231.10;2252.80;;;;;;5031271;28;20055;-59
2021/11/08 02:23:05;;;;;;;31.55;20.90;;;231.10;2252.80;;;;;;5031220;28;20116;-58
2021/11/08 02:25:35;;;;;;;33.63;21.27;;;231.30;2252.80;;;;;;5031379;28;20075;-58
2021/11/08 02:28:00;;;;;;;30.48;19.42;;;256.00;2252.80;;;;;;5031051;28;20029;-59
2021/11/08 02:30:29;;;;;;;27.33;19.90;;;231.10;2252.80;;;;;;5030775;28;20494;-59
2021/11/08 02:32:57;;;;;;;27.38;17.67;;;231.00;2252.80;;;;;;5031138;28;20430;-59
2021/11/08 02:35:24;;;;;;;25.70;18.60;;;231.10;2252.80;;;;;;5031086;28;20029;-59
2021/11/08 02:37:50;;;;;;;26.67;18.88;;;231.10;2252.80;;;;;;5031095;28;20531;-58
2021/11/08 02:40:21;;;;;;;26.92;17.13;;;231.20;2252.80;;;;;;5030754;28;20110;-58
2021/11/08 02:42:49;;;;;;;31.95;21.25;;;231.30;2252.80;;;;;;5030818;28;20059;-59
2021/11/08 02:45:20;;;;;;;30.77;20.40;;;231.30;2252.80;;;;;;5030510;28;20391;-60
2021/11/08 02:47:48;;;;;;;31.60;19.77;;;231.30;2252.80;;;;;;5030542;28;20030;-58
2021/11/08 02:50:16;;;;;;;29.27;19.13;;;231.30;2252.80;;;;;;5030734;28;20029;-60
2021/11/08 02:52:42;;;;;;;27.17;18.45;;;256.00;2252.80;;;;;;5030784;28;20021;-59
2021/11/08 02:55:08;;;;;;;32.05;19.15;;;256.00;2252.80;;;;;;5030734;28;20045;-59
2021/11/08 02:57:38;;;;;;;29.83;19.00;;;231.30;2252.80;;;;;;5030433;28;20076;-59
2021/11/08 03:00:06;;;;;;;29.98;19.85;;;256.00;2252.80;;;;;;5030172;28;20484;-59
2021/11/08 03:02:35;;;;;;;32.78;18.52;;;231.30;2252.80;;;;;;5030477;28;20037;-58
2021/11/08 03:05:02;;;;;;;35.47;21.08;;;231.20;2252.80;;;;;;5030460;28;20076;-59
2021/11/08 03:07:31;;;;;;;26.58;19.02;;;231.30;2252.80;;;;;;5030257;28;20025;-59
2021/11/08 03:10:02;;;;;;;28.67;19.25;;;256.00;2252.80;;;;;;5030163;28;20037;-59
2021/11/08 03:12:31;;;;;;;33.70;18.75;;;256.10;2252.80;;;;;;5030410;28;20021;-59
2021/11/08 03:17:32;;;;;;;35.20;21.13;;;256.10;2252.80;;;;;;5030136;28;20499;-58
2021/11/08 03:19:57;;;;;;;38.60;23.38;;;256.00;2252.80;;;;;;5030068;28;20100;-59
2021/11/08 03:22:30;;;;;;;32.13;20.90;;;231.30;2252.80;;;;;;5030076;28;20104;-58
2021/11/08 03:25:00;;;;;;;34.75;21.30;;;231.30;2252.80;;;;;;5030324;28;20057;-58
2021/11/08 03:30:08;;;;;;;27.23;19.70;;;231.30;2252.80;;;;;;5029886;28;20086;-59
2021/11/08 03:32:36;;;;;;;32.95;22.83;;;231.30;2252.80;;;;;;5029798;28;20021;-59
2021/11/08 03:35:05;;;;;;;32.17;21.23;;;231.30;2252.80;;;;;;5030085;28;20052;-60
2021/11/08 03:37:37;;;;;;;33.53;21.90;;;256.00;2252.80;;;;;;5030149;28;20029;-59
2021/11/08 03:40:05;;;;;;;35.30;20.90;;;256.30;2252.80;;;;;;5030002;28;20022;-59
2021/11/08 03:42:31;;;;;;;28.45;18.73;;;231.20;2252.80;;;;;;5030010;28;20033;-60
2021/11/08 03:44:56;;;;;;;38.22;26.27;;;231.20;2252.80;;;;;;5029868;28;20032;-60
2021/11/08 03:47:22;;;;;;;33.38;21.98;;;231.20;2252.80;;;;;;5030107;28;20026;-59
2021/11/08 03:49:48;;;;;;;30.35;18.58;;;231.30;2252.80;;;;;;5029940;28;20414;-60
2021/11/08 03:52:14;;;;;;;28.98;20.67;;;231.30;2252.80;;;;;;5029790;28;20053;-59
2021/11/08 03:54:40;;;;;;;29.50;18.35;;;256.00;2252.80;;;;;;5029988;28;20083;-60
2021/11/08 03:57:06;;;;;;;31.33;20.25;;;256.10;2252.80;;;;;;5029587;28;20017;-59
2021/11/08 03:59:32;;;;;;;31.77;19.10;;;256.00;2252.80;;;;;;5029741;28;20046;-59
2021/11/08 04:01:58;;;;;;;30.70;22.20;;;256.00;2252.80;;;;;;5029573;28;20069;-59
2021/11/08 04:04:24;;;;;;;31.35;22.33;;;256.00;2252.80;;;;;;5029664;28;20049;-59
2021/11/08 04:06:50;;;;;;;33.83;22.50;;;231.30;2252.80;;;;;;5030104;28;20029;-59
2021/11/08 04:09:17;;;;;;;34.50;22.10;;;231.30;2252.80;;;;;;5029548;28;20037;-60
2021/11/08 04:11:43;;;;;;;31.88;23.65;;;231.20;2252.80;;;;;;5029607;28;20047;-59
2021/11/08 04:14:11;;;;;;;45.33;30.55;;;256.00;2252.80;;;;;;5029757;28;20034;-59
2021/11/08 04:16:39;;;;;;;35.80;21.95;;;231.30;2252.80;;;;;;5032855;28;20471;-59
2021/11/08 04:19:06;;;;;;;43.72;24.42;;;231.30;2252.80;;;;;;5033487;28;20037;-59
2021/11/08 04:21:33;;;;;;;41.00;26.30;;;231.30;2252.80;;;;;;5033632;28;20025;-58
2021/11/08 04:23:59;;;;;;;37.10;23.15;;;231.30;2252.80;;;;;;5033752;28;20040;-58
2021/11/08 04:26:28;;;;;;;40.33;25.13;;;256.10;2252.80;;;;;;5033569;28;20024;-60
2021/11/08 04:29:02;;;;;;;37.65;24.60;;;256.00;2252.80;;;;;;5033092;28;20045;-60
2021/11/08 04:31:29;;;;;;;39.75;26.83;;;231.30;2252.80;;;;;;5033043;28;20025;-59
2021/11/08 04:34:01;;;;;;;33.58;22.90;;;231.30;2252.80;;;;;;5033080;28;20029;-59
2021/11/08 04:44:40;;;;;;;46.30;38.65;;;256.10;2252.80;;;;;;5033319;28;20116;-59
2021/11/08 04:58:44;;;;;;;43.70;30.45;;;231.20;2252.80;;;;;;5033124;28;20029;-60
2021/11/08 05:25:25;;;;;;;33.72;21.20;;;231.20;2252.80;;;;;;5032528;28;20040;-59
2021/11/08 05:30:20;;;;;;;35.38;20.98;;;231.10;2252.80;;;;;;5032260;28;20082;-58
2021/11/08 05:32:51;;;;;;;34.88;22.15;;;231.10;2252.80;;;;;;5032019;28;20033;-59
2021/11/08 05:35:18;;;;;;;30.45;20.92;;;231.10;2252.80;;;;;;5032265;28;20045;-59
2021/11/08 05:37:44;;;;;;;35.78;25.00;;;231.20;2252.80;;;;;;5032129;28;20029;-59
2021/11/08 05:40:15;;;;;;;41.50;27.05;;;231.20;2252.80;;;;;;5032301;28;20028;-58
2021/11/08 05:42:42;;;;;;;34.55;24.50;;;231.10;2252.80;;;;;;5032144;28;20481;-59
2021/11/08 05:45:11;;;;;;;32.80;23.80;;;231.10;2252.80;;;;;;5032092;28;20021;-59
2021/11/08 05:47:39;;;;;;;33.05;21.88;;;231.10;2252.80;;;;;;5031688;28;20033;-59
2021/11/08 05:50:07;;;;;;;40.33;22.88;;;231.20;2252.80;;;;;;5031613;28;20033;-59
2021/11/08 05:52:33;;;;;;;33.58;20.42;;;231.30;2252.80;;;;;;5032041;28;20028;-59
2021/11/08 05:54:59;;;;;;;28.48;20.33;;;231.30;2252.80;;;;;;5031812;28;20037;-58
2021/11/08 05:57:42;;;;;;;34.58;21.08;;;231.30;2252.80;;;;;;5031717;28;20504;-59
2021/11/08 06:49:50;;;;;;;30.67;22.65;;;256.00;2252.80;;;;;;4988987;28;20114;-58
2021/11/08 06:52:17;;;;;;;140.90;105.30;;;256.30;2252.80;;;;;;4989041;28;20043;-59
2021/11/08 06:54:45;;;;;;;32.65;23.10;;;256.10;2252.80;;;;;;4989024;28;20034;-59
2021/11/08 06:57:16;;;;;;;31.20;21.10;;;256.20;2252.80;;;;;;4973306;28;20031;-59
2021/11/08 06:59:44;;;;;;;39.45;27.95;;;256.30;2252.80;;;;;;4988930;28;20132;-59
2021/11/08 07:02:12;;;;;;;33.85;22.65;;;256.40;2252.80;;;;;;4989012;28;20031;-59
2021/11/08 07:04:38;;;;;;;26.88;18.40;;;256.30;2252.80;;;;;;4988942;28;20115;-58
2021/11/08 07:07:06;;;;;;;54.95;39.63;;;256.40;2252.80;;;;;;4988955;28;20026;-59
2021/11/08 07:09:33;;;;;;;27.10;20.13;;;256.50;2252.80;;;;;;4989053;28;20038;-59
2021/11/08 07:11:59;;;;;;;50.28;44.75;;;256.50;2252.80;;;;;;4988507;28;20030;-59
2021/11/08 07:14:25;;;;;;;65.57;47.47;;;256.50;2252.80;;;;;;4988854;28;20076;-59
2021/11/08 07:16:51;;;;;;;75.07;62.55;;;256.50;2252.80;;;;;;4990128;28;20504;-59
2021/11/08 07:19:17;;;;;;;49.95;37.08;;;256.50;2252.80;;;;;;5010553;28;20037;-59
2021/11/08 07:21:43;;;;;;;70.68;60.85;;;256.50;2252.80;;;;;;5010769;28;20033;-59
2021/11/08 07:24:09;;;;;;;64.65;51.90;;;256.50;2252.80;;;;;;5010599;28;20076;-61
2021/11/08 07:26:35;;;;;;;34.53;24.83;;;256.50;2252.80;;;;;;5010353;28;20030;-60
2021/11/08 07:29:00;;;;;;;33.33;25.73;;;256.60;2252.80;;;;;;5010526;28;20132;-59
2021/11/08 07:31:27;;;;;;;38.97;32.88;;;256.60;2252.80;;;;;;5010311;28;20109;-60
2021/11/08 07:33:52;;;;;;;34.83;30.80;;;256.70;2252.80;;;;;;5010682;28;20030;-59
2021/11/08 07:36:18;;;;;;;26.10;20.30;;;256.70;2252.80;;;;;;5010590;28;20018;-59
2021/11/08 07:38:44;;;;;;;29.00;21.75;;;256.80;2252.80;;;;;;5010274;28;20083;-59
2021/11/08 07:41:11;;;;;;;29.75;22.73;;;256.90;2252.80;;;;;;5010746;28;20365;-59
2021/11/08 07:43:38;;;;;;;70.47;51.90;;;281.60;2278.40;;;;;;5010168;28;20034;-60
2021/11/08 07:46:04;;;;;;;126.85;87.78;;;281.60;2278.40;;;;;;5010226;28;20046;-59
2021/11/08 07:48:30;;;;;;;35.13;28.25;;;281.60;2278.40;;;;;;5010247;28;20490;-60
2021/11/08 07:50:56;;;;;;;24.08;19.50;;;281.70;2278.40;;;;;;5012419;28;20030;-59
2021/11/08 07:53:22;;;;;;;26.35;19.05;;;281.70;2278.40;;;;;;5014350;28;20030;-59
2021/11/08 07:55:48;;;;;;;29.63;22.33;;;281.70;2278.40;;;;;;5014138;28;20371;-60
2021/11/08 07:58:15;;;;;;;68.72;45.33;;;281.70;2278.40;;;;;;5014057;28;20034;-59
2021/11/08 08:00:42;;;;;;;81.80;53.97;;;281.70;2278.40;;;;;;5014023;28;20488;-59
2021/11/08 08:03:10;;;;;;;35.92;26.60;;;281.70;2278.40;;;;;;5014002;28;20399;-60
2021/11/08 08:05:36;;;;;;;42.28;29.52;;;281.60;2278.40;;;;;;5013967;28;20033;-59
2021/11/08 08:08:03;;;;;;;29.90;20.02;;;256.90;2252.80;;;;;;5013964;28;20483;-60
2021/11/08 08:10:29;;;;;;;71.10;52.15;;;281.60;2278.40;;;;;;5013919;28;20037;-60
2021/11/08 08:12:55;;;;;;;32.13;22.58;;;281.70;2278.40;;;;;;5013904;28;20033;-59
2021/11/08 08:15:21;;;;;;;42.60;29.35;;;281.60;2278.40;;;;;;5014095;28;20022;-59
2021/11/08 08:17:47;;;;;;;47.28;34.65;;;256.90;2252.80;;;;;;5013726;28;20095;-59
2021/11/08 08:20:19;;;;;;;53.58;43.97;;;256.90;2252.80;;;;;;5013973;28;20054;-59
2021/11/08 08:22:45;;;;;;;60.05;50.13;;;256.70;2252.80;;;;;;5013545;28;20112;-58
2021/11/08 08:25:12;;;;;;;27.33;21.13;;;256.50;2252.80;;;;;;5013820;28;20026;-59
2021/11/08 08:27:38;;;;;;;42.72;31.83;;;256.60;2252.80;;;;;;5013499;28;20422;-59
2021/11/08 08:30:06;;;;;;;43.13;30.85;;;256.50;2252.80;;;;;;5013390;28;20038;-59
2021/11/08 08:32:32;;;;;;;26.98;19.67;;;256.50;2252.80;;;;;;5013486;28;20105;-60
2021/11/08 08:34:58;;;;;;;19.88;15.00;;;256.40;2252.80;;;;;;5013377;28;20105;-60
2021/11/08 08:37:24;;;;;;;87.53;61.55;;;256.50;2252.80;;;;;;5013366;28;20022;-60
2021/11/08 08:39:51;;;;;;;21.10;14.73;;;256.40;2252.80;;;;;;5013569;28;20041;-60
2021/11/08 08:42:17;;;;;;;17.15;11.07;;;256.40;2252.80;;;;;;5013373;28;20022;-60
2021/11/08 08:44:44;;;;;;;17.50;12.05;;;256.50;2252.80;;;;;;5013300;28;20062;-59
2021/11/08 08:47:10;;;;;;;16.10;11.10;;;256.70;2252.80;;;;;;5013500;28;20076;-60
2021/11/08 08:49:36;;;;;;;14.27;10.73;;;256.90;2252.80;;;;;;5013278;28;20419;-59
2021/11/08 08:52:02;;;;;;;53.40;38.42;;;281.60;2278.40;;;;;;5013416;28;20357;-59
2021/11/08 08:54:28;;;;;;;19.05;14.68;;;281.60;2278.40;;;;;;5013155;28;20541;-61
2021/11/08 08:56:53;;;;;;;14.63;11.75;;;281.70;2278.40;;;;;;5013060;28;20105;-59
2021/11/08 08:59:21;;;;;;;18.42;16.45;;;281.60;2278.40;;;;;;5013236;28;20029;-59
2021/11/08 09:01:47;;;;;;;12.10;10.55;;;256.90;2252.80;;;;;;5012612;28;20076;-59
2021/11/08 09:04:13;;;;;;;15.63;13.00;;;256.80;2252.80;;;;;;5012778;28;20036;-59
2021/11/08 09:06:39;;;;;;;16.13;12.38;;;256.70;2252.80;;;;;;5013107;28;20105;-59
2021/11/08 09:09:05;;;;;;;11.85;7.88;;;256.60;2252.80;;;;;;5012759;28;20423;-59
2021/11/08 09:11:31;;;;;;;210.18;110.03;;;256.50;2252.80;;;;;;5011989;28;20387;-58
2021/11/08 09:14:01;;;;;;;24.00;16.60;;;256.60;2252.80;;;;;;5013044;28;20033;-58
2021/11/08 09:16:30;;;;;;;23.98;16.92;;;256.60;2252.80;;;;;;5012652;28;20167;-59
2021/11/08 09:18:56;;;;;;;19.48;13.95;;;256.70;2252.80;;;;;;5012646;28;20022;-60
2021/11/08 09:21:25;;;;;;;15.98;11.52;;;256.50;2252.80;;;;;;5012920;28;20040;-59
2021/11/08 09:23:52;;;;;;;11.68;8.55;;;256.70;2252.80;;;;;;5012861;28;20112;-58
2021/11/08 09:26:20;;;;;;;146.20;104.57;;;256.80;2252.80;;;;;;5012722;28;20535;-58
2021/11/08 09:28:46;;;;;;;35.40;24.17;;;256.60;2252.80;;;;;;5012438;28;20396;-58
2021/11/08 09:31:12;;;;;;;22.35;20.02;;;256.60;2252.80;;;;;;5012953;28;20030;-59
2021/11/08 09:33:39;;;;;;;28.27;18.92;;;256.60;2252.80;;;;;;5011251;28;20030;-58
2021/11/08 09:36:08;;;;;;;22.88;15.15;;;256.60;2252.80;;;;;;5012287;28;20408;-59
2021/11/08 09:38:38;;;;;;;127.95;75.15;;;256.80;2252.80;;;;;;5012168;28;20061;-59
2021/11/08 09:41:10;;;;;;;56.72;32.05;;;256.90;2252.80;;;;;;5012135;28;20026;-59
2021/11/08 09:43:36;;;;;;;38.78;26.60;;;256.90;2252.80;;;;;;5012340;28;20030;-60
2021/11/08 09:46:03;;;;;;;16.30;8.85;;;256.80;2252.80;;;;;;5012332;28;20026;-59
2021/11/08 09:48:29;;;;;;;11.85;9.75;;;256.80;2252.80;;;;;;5012326;28;20044;-60
2021/11/08 09:50:57;;;;;;;12.98;11.75;;;256.70;2252.80;;;;;;5012121;28;20468;-59
2021/11/08 09:53:23;;;;;;;13.90;10.68;;;256.80;2252.80;;;;;;5012569;28;20034;-59
2021/11/08 09:55:49;;;;;;;11.65;9.32;;;256.90;2252.80;;;;;;5012113;28;20452;-59
2021/11/08 09:58:16;;;;;;;18.88;14.20;;;256.80;2252.80;;;;;;5011741;28;20033;-61
2021/11/08 10:00:44;;;;;;;52.85;40.25;;;256.90;2252.80;;;;;;5011854;28;20050;-62
2021/11/08 10:03:15;;;;;;;22.02;17.13;;;256.80;2252.80;;;;;;5011948;28;20491;-61
2021/11/08 10:05:44;;;;;;;133.10;86.85;;;281.60;2278.40;;;;;;5011859;28;20022;-61
2021/11/08 10:08:12;;;;;;;55.10;42.70;;;256.90;2252.80;;;;;;5011992;28;20049;-61
2021/11/08 10:10:37;;;;;;;11.23;9.57;;;281.70;2278.40;;;;;;5011624;28;20076;-61
2021/11/08 10:13:07;;;;;;;33.33;27.70;;;281.70;2278.40;;;;;;5011118;28;20026;-61
2021/11/08 10:15:33;;;;;;;17.58;12.65;;;281.70;2278.40;;;;;;5011883;28;20021;-62
2021/11/08 10:18:01;;;;;;;18.25;16.38;;;281.60;2278.40;;;;;;5010412;28;20456;-58
2021/11/08 10:20:31;;;;;;;13.63;12.23;;;281.70;2278.40;;;;;;5011315;28;20103;-57
2021/11/08 10:22:59;;;;;;;10.45;8.95;;;281.70;2278.40;;;;;;5011722;28;20112;-58
2021/11/08 10:25:26;;;;;;;11.55;8.02;;;281.80;2278.40;;;;;;5011420;28;20022;-59
2021/11/08 10:27:53;;;;;;;9.70;7.88;;;281.80;2278.40;;;;;;5011633;28;20034;-57
2021/11/08 10:30:31;;;;;;;18.58;12.90;;;281.80;2278.40;;;;;;5010227;28;20091;-58
2021/11/08 10:33:05;;;;;;;10.75;9.10;;;281.80;2278.40;;;;;;5011063;28;20037;-58
2021/11/08 10:36:08;;;;;;;12.52;7.95;;;281.80;2278.40;;;;;;5011381;28;20021;-58
2021/11/08 10:38:35;;;;;;;9.90;7.03;;;281.90;2278.40;;;;;;4989453;28;20508;-59
2021/11/08 10:41:06;;;;;;;18.95;14.73;;;282.00;2278.40;;;;;;4989669;28;20038;-58
2021/11/08 10:43:38;;;;;;;12.45;9.70;;;281.90;2278.40;;;;;;4989375;28;20377;-58
2021/11/08 10:46:11;;;;;;;8.95;5.80;;;282.00;2278.40;;;;;;4989453;28;20081;-58
2021/11/08 10:48:46;;;;;;;13.82;12.10;;;282.10;2278.40;;;;;;4989026;28;20123;-58
2021/11/08 10:51:14;;;;;;;22.35;18.95;;;282.00;2278.40;;;;;;4989344;28;20070;-58
2021/11/08 10:53:52;;;;;;;9.75;5.72;;;281.80;2278.40;;;;;;4989316;28;20061;-58
2021/11/08 10:56:21;;;;;;;10.07;6.60;;;282.00;2278.40;;;;;;4989144;28;20520;-58
2021/11/08 10:58:47;;;;;;;12.65;9.32;;;282.10;2278.40;;;;;;4988972;28;20037;-58
2021/11/08 11:01:23;;;;;;;15.43;12.80;;;282.00;2278.40;;;;;;4989149;28;20609;-56
2021/11/08 11:03:51;;;;;;;7.55;5.10;;;281.90;2278.40;;;;;;4989224;28;20029;-58
2021/11/08 11:06:18;;;;;;;11.90;6.68;;;281.90;2278.40;;;;;;4988924;28;20031;-59
2021/11/08 11:08:50;;;;;;;21.73;19.90;;;281.80;2278.40;;;;;;4988711;28;20043;-58
2021/11/08 11:11:24;;;;;;;13.50;12.13;;;281.80;2278.40;;;;;;4988817;28;20030;-58
2021/11/08 11:13:54;;;;;;;8.90;7.63;;;281.90;2278.40;;;;;;4991267;28;20026;-59
2021/11/08 11:16:39;;;;;;;11.98;8.18;;;281.80;2278.40;;;;;;5011103;28;20025;-59
2021/11/08 11:19:11;;;;;;;10.85;8.68;;;281.90;2278.40;;;;;;5010526;28;20041;-59
2021/11/08 11:21:39;;;;;;;12.35;9.88;;;281.80;2278.40;;;;;;5010631;28;20033;-59
2021/11/08 11:24:06;;;;;;;9.50;7.03;;;281.90;2278.40;;;;;;5010526;28;20025;-59
2021/11/08 11:26:50;;;;;;;15.13;12.32;;;281.90;2278.40;;;;;;5010867;28;20365;-59
2021/11/08 11:29:26;;;;;;;10.18;7.63;;;282.00;2278.40;;;;;;5010188;28;20392;-59
2021/11/08 11:31:52;;;;;;;10.65;7.18;;;282.10;2278.40;;;;;;5010607;28;20034;-58
2021/11/08 11:34:18;;;;;;;15.30;12.68;;;282.50;2278.40;;;;;;5010675;28;20026;-58
2021/11/08 11:36:44;;;;;;;9.52;8.27;;;282.00;2278.40;;;;;;5010511;28;20384;-59
2021/11/08 11:39:15;;;;;;;18.75;14.35;;;281.90;2278.40;;;;;;5010519;28;20460;-58
2021/11/08 11:41:44;;;;;;;10.38;6.53;;;282.00;2278.40;;;;;;5008856;28;20041;-58
2021/11/08 11:44:22;;;;;;;11.05;9.95;;;282.00;2278.40;;;;;;5010463;28;20033;-58
2021/11/08 11:46:54;;;;;;;8.98;7.85;;;282.00;2278.40;;;;;;5010342;28;20030;-59
2021/11/08 11:49:20;;;;;;;14.27;12.02;;;281.90;2278.40;;;;;;5010330;28;20104;-58
2021/11/08 11:51:53;;;;;;;13.13;8.18;;;281.90;2278.40;;;;;;5010110;28;20068;-58
2021/11/08 11:54:22;;;;;;;9.93;6.90;;;282.00;2278.40;;;;;;5010503;28;20025;-58
2021/11/08 11:56:51;;;;;;;11.02;7.88;;;281.90;2278.40;;;;;;5010021;28;20034;-58
2021/11/08 11:59:17;;;;;;;16.92;12.82;;;282.00;2278.40;;;;;;5009664;28;20095;-58
2021/11/08 12:01:44;;;;;;;40.75;31.10;;;282.00;2278.40;;;;;;5010091;28;20077;-58
2021/11/08 12:04:12;;;;;;;64.28;41.72;;;281.70;2278.40;;;;;;5010393;28;20088;-58
2021/11/08 12:06:41;;;;;;;74.28;52.92;;;256.90;2252.80;;;;;;5009890;28;20033;-58
2021/11/08 12:09:13;;;;;;;75.38;53.33;;;256.80;2252.80;;;;;;5009843;28;20407;-59
2021/11/08 12:11:42;;;;;;;31.83;21.60;;;281.70;2278.40;;;;;;5010070;28;20018;-59
2021/11/08 12:14:14;;;;;;;64.53;41.97;;;281.70;2278.40;;;;;;5010127;28;20026;-58
2021/11/08 12:17:06;;;;;;;60.73;41.40;;;281.80;2278.40;;;;;;5010158;28;20048;-59
2021/11/08 12:19:38;;;;;;;52.90;37.22;;;281.80;2278.40;;;;;;5010175;28;20022;-58
2021/11/08 12:22:17;;;;;;;98.25;65.35;;;281.60;2278.40;;;;;;5009742;28;20101;-59
2021/11/08 12:24:57;;;;;;;142.07;89.47;;;281.80;2278.40;;;;;;5010282;28;20024;-59
2021/11/08 12:27:34;;;;;;;90.93;58.97;;;281.90;2278.40;;;;;;5009928;28;20428;-59
2021/11/08 12:30:00;;;;;;;67.65;47.25;;;282.00;2278.40;;;;;;5010035;28;20037;-58
2021/11/08 12:32:26;;;;;;;73.32;53.03;;;282.00;2278.40;;;;;;5010147;28;20022;-62
2021/11/08 12:34:55;;;;;;;91.55;64.35;;;282.10;2278.40;;;;;;5010568;28;20439;-62
2021/11/08 12:37:34;;;;;;;49.58;35.45;;;282.30;2278.40;;;;;;5013125;28;20026;-59
2021/11/08 12:40:02;;;;;;;45.60;33.40;;;282.00;2278.40;;;;;;5013594;28;20419;-55
2021/11/08 12:42:43;;;;;;;43.92;31.17;;;282.10;2278.40;;;;;;5013242;28;20029;-56
2021/11/08 12:45:24;;;;;;;43.53;28.20;;;282.00;2278.40;;;;;;5013475;28;20030;-59
2021/11/08 12:48:10;;;;;;;107.22;81.57;;;282.00;2278.40;;;;;;5013689;28;20029;-57
2021/11/08 12:50:48;;;;;;;33.63;29.67;;;282.00;2278.40;;;;;;5013307;28;20061;-57
2021/11/08 12:53:34;;;;;;;26.58;20.90;;;282.00;2278.40;;;;;;5013065;28;20026;-57
2021/11/08 12:56:08;;;;;;;27.55;19.98;;;281.90;2278.40;;;;;;5013192;28;20475;-58
2021/11/08 12:58:35;;;;;;;;;;;281.90;2278.40;;;;;;5013220;28;20026;-58
2021/11/08 13:01:03;;;;;;;69.13;49.63;;;281.70;2278.40;;;;;;5012919;28;19983;-56
2021/11/08 13:03:35;;;;;;;39.85;27.65;;;281.60;2278.40;;;;;;5013117;28;20037;-58
2021/11/08 13:06:04;;;;;;;40.25;28.95;;;281.60;2278.40;;;;;;5011917;28;20018;-57
2021/11/08 13:08:31;;;;;;;60.45;39.95;;;281.60;2278.40;;;;;;5012987;28;20380;-57
2021/11/08 13:11:12;;;;;;;64.05;47.63;;;281.70;2278.40;;;;;;5012651;28;20105;-58
2021/11/08 13:13:58;;;;;;;103.05;77.97;;;281.70;2278.40;;;;;;5012540;28;20480;-57
2021/11/08 13:16:43;;;;;;;42.33;31.33;;;281.90;2278.40;;;;;;5012685;28;20026;-58
2021/11/08 13:19:13;;;;;;;38.60;27.10;;;282.20;2278.40;;;;;;5012719;28;20022;-58
2021/11/08 13:21:40;;;;;;;32.78;22.75;;;282.30;2278.40;;;;;;5012968;28;20037;-57
2021/11/08 13:24:08;;;;;;;16.73;11.95;;;282.40;2278.40;;;;;;5012658;28;20388;-58
2021/11/08 13:26:39;;;;;;;23.05;16.10;;;282.40;2278.40;;;;;;5012692;28;20029;-58
2021/11/08 13:29:17;;;;;;;22.33;14.25;;;282.40;2278.40;;;;;;5012441;28;20038;-57
2021/11/08 13:31:43;;;;;;;28.40;21.95;;;282.50;2278.40;;;;;;5012359;28;20084;-58
2021/11/08 13:34:09;;;;;;;33.47;29.77;;;282.50;2278.40;;;;;;5012587;28;20021;-57
2021/11/08 13:36:35;;;;;;;63.28;44.08;;;282.50;2278.40;;;;;;5012233;28;20033;-57
2021/11/08 13:39:02;;;;;;;45.88;35.80;;;282.40;2278.40;;;;;;5012435;28;20026;-57
2021/11/08 13:41:33;;;;;;;31.73;23.48;;;282.50;2278.40;;;;;;5012461;28;20041;-57
2021/11/08 13:44:08;;;;;;;23.13;20.05;;;282.30;2278.40;;;;;;5012316;28;20361;-57
2021/11/08 13:46:40;;;;;;;27.92;21.30;;;282.20;2278.40;;;;;;5010904;28;20033;-58
2021/11/08 13:49:18;;;;;;;21.73;17.50;;;282.20;2278.40;;;;;;5011028;28;20073;-58